Have a Safe July 4th! 

Flight Track Log - Related Links

Times and Time Zones

All times are in EDT time to prevent confusion due to time zone crossing. See the CTL17 flight status page for this flight to view local times or setup timezone preferences in your user account.

Time Position Orientation Groundspeed Altitude Reporting Facility
EDT Latitude Longitude Course Direction KTS MPH feet Rate Location/Type
Tue 05:40:12 PM 42.2769 -83.5158 354° North 125 144 1,900  Level Cleveland Center
Tue 05:41:07 PM 42.3039 -83.5172 358° North 117 135 2,700 885 Climbing Cleveland Center
Tue 05:42:14 PM 42.3325 -83.5464 323° Northwest 149 171 3,700 850 Climbing Cleveland Center
Tue 05:43:14 PM 42.3083 -83.5903 233° Southwest 152 175 4,500 645 Climbing Cleveland Center
Tue 05:44:15 PM 42.2756 -83.5636 149° Southeast 147 169 5,000 233 Climbing Cleveland Center
Tue 05:45:23 PM 42.2394 -83.5086 132° Southeast 170 196 5,000 -49 Level Cleveland Center
Tue 05:46:18 PM 42.2219 -83.4572 115° Southeast 159 183 4,900  Descending Cleveland Center
Tue 05:47:24 PM 42.2028 -83.3947 112° Southeast 169 194 5,000 47 Climbing Cleveland Center
Tue 05:48:25 PM 42.1833 -83.3378 115° Southeast 164 189 5,000 49 Level Cleveland Center
Tue 05:49:26 PM 42.1639 -83.2808 115° Southeast 165 190 5,100  Climbing Cleveland Center
Tue 05:50:27 PM 42.1400 -83.2239 119° Southeast 171 197 5,000 -52 Descending Cleveland Center
Tue 05:51:22 PM 42.1183 -83.1725 120° Southeast 171 197 5,000  Level Cleveland Center
Tue 05:52:29 PM 42.0906 -83.1156 123° Southeast 171 197 5,000  Level Cleveland Center
Tue 05:53:31 PM 42.0708 -83.0558 114° Southeast 171 197 5,000  Level Cleveland Center
Tue 05:54:31 PM 42.0450 -82.9961 120° Southeast 169 194 5,000  Level Cleveland Center
Tue 05:55:39 PM 42.0233 -82.9367 116° Southeast 168 193 5,000  Level Cleveland Center
Tue 05:56:52 PM 41.9956 -82.8714 120° Southeast 169 194 5,000  Level Cleveland Center
Tue 05:57:53 PM 41.9717 -82.8119 118° Southeast 173 199 5,000  Level Cleveland Center
Tue 05:58:53 PM 41.9475 -82.7608 122° Southeast 170 196 5,000  Level Cleveland Center
Tue 05:59:54 PM 41.9217 -82.6986 119° Southeast 171 197 5,000  Level Cleveland Center
Tue 06:01:01 PM 41.8978 -82.6392 118° Southeast 173 199 5,000 49 Level Cleveland Center
Tue 06:01:56 PM 41.8758 -82.5853 119° Southeast 173 199 5,100  Climbing Cleveland Center
Tue 06:02:57 PM 41.8558 -82.5292 116° Southeast 170 196 5,000 -52 Descending Cleveland Center
Tue 06:03:51 PM 41.8358 -82.4783 118° Southeast 168 193 5,000  Level Cleveland Center
Tue 06:04:52 PM 41.8117 -82.4247 121° Southeast 171 197 5,000  Level Cleveland Center
Tue 06:05:53 PM 41.7875 -82.3711 121° Southeast 169 194 5,000  Level Cleveland Center
Tue 06:07:00 PM 41.7614 -82.3061 118° Southeast 171 197 5,000 -49 Level Cleveland Center
Tue 06:07:55 PM 41.7414 -82.2528 117° Southeast 170 196 4,900 -310 Descending Cleveland Center
Tue 06:08:56 PM 41.7153 -82.1908 119° Southeast 194 223 4,400 -472 Descending Cleveland Center
Tue 06:10:02 PM 41.6911 -82.1236 116° Southeast 182 209 3,900 -496 Descending Cleveland Center
Tue 06:10:57 PM 41.6689 -82.0731 120° Southeast 186 214 3,400 -466 Descending Cleveland Center
Tue 06:11:58 PM 41.6425 -82.0114 120° Southeast 183 211 3,000 -281 Descending Cleveland Center
Tue 06:13:05 PM 41.6203 -81.9525 117° Southeast 164 189 2,800 -281 Descending Cleveland Center
Tue 06:14:06 PM 41.5961 -81.8936 119° Southeast 177 204 2,400 -422 Descending Cleveland Center
Tue 06:15:13 PM 41.5611 -81.8347 128° Southeast 171 197 1,900 -397 Descending Cleveland Center
Tue 06:16:07 PM 41.5367 -81.7925 128° Southeast 163 188 1,600 -275 Descending Cleveland Center
Tue 06:17:02 PM 41.5142 -81.7506 126° Southeast 148 170 1,400 -344 Descending Cleveland Center
Tue 06:18:09 PM 41.5061 -81.7089 104° East 96 110 900 -448 Descending Cleveland Center

Login

Don't have an account? Register now (free) for customized features, flight alerts, and more!